Latest Weather Observations for Albury

IDN60801

Issued at 7:35 pm EDT Sunday 26 October 2014 (issued every 30 minutes, with the page automatically refreshed every 10 minutes)

About weather observations | Map of weather stations | Latest weather observations for NSW | Other Formats
Station Details ID: 072160 Name: ALBURY AIRPORT AWS Lat: -36.07 Lon: 146.95 Height: 163.5 m
Data from the previous 72 hours. | See also: Recent months at Albury
Date/Time
EDT
Temp
°C
App
Temp
°C
Dew
Point
Rel
Hum
%
Delta-T
°C
Wind Press
QNH
hPa
Press
MSL
hPa
Rain
since 9 am
mm
Dir
 
Spd
km/h
Gust
km/h
Spd
kts
Gust
kts
26/07:30pm 24.0 21.0 7.6 35 8.7 NW 13 17 7 9 1011.3 1011.1 0.0
26/07:00pm 24.7 20.8 6.9 32 9.4 NW 17 24 9 13 1011.2 1011.0 0.0
26/06:30pm 25.2 21.6 6.9 31 9.6 WNW 15 20 8 11 1010.9 1010.7 0.0
26/06:00pm 25.9 21.3 6.5 29 10.2 WNW 20 28 11 15 1010.9 1010.7 0.0
26/05:30pm 26.7 21.6 6.2 27 10.8 WNW 22 30 12 16 1010.7 1010.5 0.0
26/05:00pm 27.4 22.7 6.2 26 11.2 W 20 28 11 15 1010.6 1010.4 0.0
26/04:30pm 28.2 22.3 5.7 24 11.8 W 26 39 14 21 1010.6 1010.4 0.0
26/04:00pm 28.3 21.9 5.2 23 12.0 W 28 39 15 21 1010.5 1010.3 0.0
26/03:30pm 28.4 22.4 8.7 29 10.9 W 30 39 16 21 1010.5 1010.3 0.0
26/03:00pm 27.5 22.7 7.4 28 10.8 WNW 22 32 12 17 1010.5 1010.3 0.0
26/02:30pm 27.8 22.9 7.1 27 11.1 WNW 22 30 12 16 1010.2 1010.0 0.0
26/02:00pm 27.4 23.0 7.3 28 10.8 WNW 20 24 11 13 1010.5 1010.3 0.0
26/01:30pm 28.0 23.9 8.8 30 10.6 WNW 20 24 11 13 1010.8 1010.6 0.0
26/01:00pm 27.6 24.3 9.4 32 10.1 NW 17 24 9 13 1010.9 1010.7 0.0
26/12:30pm 26.8 24.4 11.3 38 8.9 W 15 22 8 12 1011.3 1011.1 0.0
26/12:00pm 26.3 22.9 10.5 37 8.9 W 19 24 10 13 1011.5 1011.3 0.0
26/11:30am 25.9 22.5 9.3 35 9.2 WNW 17 22 9 12 1011.7 1011.5 0.0
26/11:00am 24.1 21.0 8.9 38 8.2 W 15 19 8 10 1011.7 1011.5 0.0
26/10:30am 23.6 21.6 11.6 47 6.8 W 13 19 7 10 1011.7 1011.5 0.0
26/10:00am 22.1 20.4 13.5 58 5.0 W 15 20 8 11 1012.3 1012.1 0.0
26/09:30am 20.6 19.8 14.0 66 3.8 WSW 11 15 6 8 1012.1 1011.9 0.0
26/09:00am 19.4 20.2 13.8 70 3.2 N 2 6 1 3 1011.7 1011.5 0.0
26/08:30am 18.3 18.9 13.0 71 3.0 S 2 6 1 3 1011.5 1011.3 0.0
26/08:00am 16.8 17.5 12.3 75 2.5 CALM 0 0 0 0 1011.3 1011.1 0.0
26/07:30am 15.5 16.2 12.1 80 1.9 CALM 0 0 0 0 1011.2 1011.0 0.0
26/07:00am 14.0 14.8 12.6 91 0.8 CALM 0 0 0 0 1011.1 1010.9 0.0
26/06:58am 13.2 13.8 11.9 92 0.7 CALM 0 0 0 0 1011.0 1010.8 0.0
26/06:42am 12.2 12.5 10.9 92 0.7 CALM 0 0 0 0 1011.0 1010.8 0.0
26/06:30am 12.2 12.5 10.8 91 0.7 CALM 0 0 0 0 1010.7 1010.5 0.0
26/06:06am 12.4 12.6 10.6 89 0.9 CALM 0 0 0 0 1010.5 1010.3 0.0
26/06:00am 12.8 13.3 11.5 92 0.7 CALM 0 0 0 0 1010.5 1010.3 0.0
26/05:47am 13.0 13.3 10.9 87 1.1 CALM 0 0 0 0 1010.4 1010.2 0.0
26/05:30am 13.5 14.1 11.9 90 0.9 CALM 0 0 0 0 1010.4 1010.2 0.0
26/05:00am 13.7 13.5 11.7 88 1.1 ESE 4 6 2 3 1009.9 1009.7 0.0
26/04:30am 14.2 13.6 11.7 85 1.4 E 6 9 3 5 1009.7 1009.5 0.0
26/04:23am 14.1 13.3 11.6 85 1.3 E 7 9 4 5 1009.6 1009.4 0.0
26/04:05am 15.1 14.6 12.2 83 1.6 ENE 6 6 3 3 1009.7 1009.5 0.0
26/04:00am 14.9 14.4 11.9 82 1.6 NE 6 6 3 3 1009.6 1009.4 0.0
26/03:41am 15.0 14.2 11.8 81 1.7 WNW 7 11 4 6 1009.6 1009.4 0.0
26/03:30am 16.3 16.4 12.8 80 2.0 SSW 4 7 2 4 1009.5 1009.3 0.0
26/03:22am 16.2 17.0 12.7 80 2.0 CALM 0 0 0 0 1009.5 1009.3 0.0
26/03:00am 16.6 17.5 12.9 79 2.1 CALM 0 6 0 3 1009.4 1009.2 0.0
26/02:30am 16.8 17.5 12.3 75 2.5 CALM 0 0 0 0 1009.5 1009.3 0.0
26/02:00am 17.4 17.0 12.3 72 2.8 E 6 7 3 4 1009.7 1009.5 0.0
26/01:30am 18.4 19.3 12.8 70 3.2 CALM 0 0 0 0 1010.1 1009.9 0.0
26/01:00am 18.7 19.7 13.3 71 3.1 CALM 0 0 0 0 1010.2 1010.0 0.0
26/12:30am 18.2 19.1 12.9 71 3.0 CALM 0 0 0 0 1010.4 1010.2 0.0
26/12:00am 19.2 19.1 13.4 69 3.3 N 6 9 3 5 1010.4 1010.2 0.0
 
Date/Time
EDT
Temp
°C
App
Temp
°C
Dew
Point
Rel
Hum
%
Delta-T
°C
Wind Press
QNH
hPa
Press
MSL
hPa
Rain
since 9 am
mm
Dir
 
Spd
km/h
Gust
km/h
Spd
kts
Gust
kts
25/11:30pm 19.2 18.9 13.2 68 3.4 N 7 9 4 5 1010.5 1010.3 0.0
25/11:00pm 19.9 20.9 13.1 65 3.9 CALM 0 0 0 0 1010.6 1010.4 0.0
25/10:30pm 21.0 20.7 13.2 61 4.5 SSE 7 11 4 6 1010.7 1010.5 0.0
25/10:00pm 22.5 23.5 13.3 56 5.3 CALM 0 0 0 0 1010.8 1010.6 0.0
25/09:30pm 22.9 22.9 13.7 56 5.4 ESE 6 9 3 5 1010.6 1010.4 0.0
25/09:00pm 21.9 22.9 13.3 58 5.0 CALM 0 7 0 4 1010.2 1010.0 0.0
25/08:30pm 23.2 23.6 13.7 55 5.6 ENE 4 6 2 3 1009.8 1009.6 0.0
25/08:00pm 23.7 24.0 13.3 52 6.1 ENE 4 7 2 4 1009.6 1009.4 0.0
25/07:30pm 25.4 25.7 13.3 47 7.1 ENE 4 6 2 3 1009.4 1009.2 0.0
25/07:00pm 27.5 27.4 13.4 41 8.4 ESE 6 9 3 5 1009.4 1009.2 0.0
25/06:30pm 28.2 27.0 12.9 38 9.1 SSE 11 15 6 8 1009.5 1009.3 0.0
25/06:00pm 28.5 27.0 12.0 36 9.6 SSE 11 17 6 9 1010.0 1009.8 0.0
25/05:30pm 28.9 27.4 13.2 38 9.4 SE 13 17 7 9 1010.0 1009.8 0.0
25/05:00pm 28.3 26.8 13.0 39 9.1 SSE 13 17 7 9 1010.6 1010.4 0.0
25/04:30pm 29.0 27.8 12.8 36 9.6 SSE 11 17 6 9 1010.8 1010.6 0.0
25/04:00pm 30.2 28.7 10.7 30 11.2 E 9 15 5 8 1011.2 1011.0 0.0
25/03:30pm 31.1 29.3 11.0 29 11.7 ESE 11 19 6 10 1011.6 1011.4 0.0
25/03:00pm 31.7 29.9 12.0 30 11.7 E 13 20 7 11 1012.0 1011.8 0.0
25/02:30pm 31.1 29.1 11.5 30 11.5 SSE 13 19 7 10 1012.6 1012.4 0.0
25/02:00pm 30.0 27.9 11.0 31 11.0 E 13 17 7 9 1013.2 1013.1 0.0
25/01:30pm 30.1 28.2 10.6 30 11.2 E 11 17 6 9 1013.5 1013.4 0.0
25/01:00pm 29.0 28.0 11.1 33 10.3 ENE 7 11 4 6 1013.7 1013.6 0.0
25/12:30pm 28.6 27.0 10.3 32 10.4 NNE 9 15 5 8 1014.2 1014.1 0.0
25/12:00pm 28.2 26.4 10.9 34 9.9 E 11 17 6 9 1014.9 1014.8 0.0
25/11:30am 26.0 25.8 14.8 50 6.8 SE 9 13 5 7 1015.2 1015.1 0.0
25/11:00am 24.7 24.3 14.2 52 6.2 SSE 9 15 5 8 1015.6 1015.5 0.0
25/10:30am 22.9 22.4 13.9 57 5.3 SSE 9 11 5 6 1016.0 1015.8 0.0
25/10:00am 21.3 20.9 14.0 63 4.3 SSE 9 13 5 7 1016.1 1015.9 0.0
25/09:30am 21.0 20.5 13.7 63 4.2 E 9 13 5 7 1016.1 1015.9 0.0
25/09:00am 19.8 19.8 12.3 62 4.2 E 4 7 2 4 1016.3 1016.1 0.0
25/08:30am 17.7 17.3 11.0 65 3.6 ESE 4 9 2 5 1016.1 1015.9 0.0
25/08:00am 16.5 17.2 12.1 75 2.4 CALM 0 0 0 0 1016.1 1015.9 0.0
25/07:31am 14.7 14.9 10.5 76 2.2 CALM 0 0 0 0 1015.9 1015.7 0.0
25/07:30am 14.7 14.9 10.5 76 2.2 CALM 0 0 0 0 1015.9 1015.7 0.0
25/07:13am 14.5 14.4 10.7 78 2.0 SE 2 7 1 4 1015.5 1015.4 0.0
25/07:00am 13.2 13.4 10.6 84 1.4 CALM 0 0 0 0 1015.4 1015.3 0.0
25/06:30am 12.2 12.1 9.6 84 1.3 CALM 0 7 0 4 1015.2 1015.1 0.0
25/06:26am 12.2 12.1 9.6 84 1.3 CALM 0 0 0 0 1015.2 1015.1 0.0
25/06:00am 11.9 11.6 8.6 80 1.6 CALM 0 0 0 0 1014.8 1014.7 0.0
25/05:57am 12.2 12.0 9.0 81 1.6 CALM 0 0 0 0 1014.8 1014.7 0.0
25/05:33am 13.1 13.0 9.5 79 1.8 CALM 0 0 0 0 1014.5 1014.4 0.0
25/05:30am 13.3 13.4 10.1 81 1.7 CALM 0 0 0 0 1014.5 1014.4 0.0
25/05:00am 12.4 12.1 8.5 77 2.0 CALM 0 0 0 0 1014.4 1014.3 0.0
25/04:59am 12.6 12.4 8.9 78 1.9 CALM 0 0 0 0 1014.4 1014.3 0.0
25/04:30am 12.9 12.8 9.4 79 1.8 CALM 0 0 0 0 1014.3 1014.2 0.0
25/04:00am 13.6 13.5 9.5 76 2.1 CALM 0 0 0 0 1014.2 1014.1 0.0
25/03:30am 13.9 13.9 9.7 76 2.2 CALM 0 0 0 0 1014.1 1014.0 0.0
25/03:00am 14.6 14.7 10.0 74 2.4 CALM 0 0 0 0 1014.1 1014.0 0.0
25/02:30am 14.6 14.9 11.0 79 1.9 CALM 0 0 0 0 1014.1 1014.0 0.0
25/02:00am 14.8 15.4 11.9 83 1.6 CALM 0 0 0 0 1014.3 1014.2 0.0
25/01:30am 14.6 14.9 11.0 79 1.9 CALM 0 0 0 0 1014.4 1014.3 0.0
25/01:00am 15.5 16.0 11.7 78 2.1 CALM 0 4 0 2 1014.4 1014.3 0.0
25/12:30am 16.1 16.6 11.7 75 2.4 CALM 0 0 0 0 1014.5 1014.4 0.0
25/12:05am 17.2 17.0 12.9 76 2.4 E 6 9 3 5 1014.3 1014.2 0.0
25/12:00am 17.3 18.1 12.6 74 2.6 CALM 0 9 0 5 1014.3 1014.2 0.0
 
Date/Time
EDT
Temp
°C
App
Temp
°C
Dew
Point
Rel
Hum
%
Delta-T
°C
Wind Press
QNH
hPa
Press
MSL
hPa
Rain
since 9 am
mm
Dir
 
Spd
km/h
Gust
km/h
Spd
kts
Gust
kts
24/11:46pm 16.9 17.1 10.7 67 3.3 CALM 0 0 0 0 1014.4 1014.3 0.0
24/11:30pm 18.9 19.5 11.9 64 3.9 CALM 0 0 0 0 1014.2 1014.1 0.0
24/11:00pm 17.4 17.8 11.2 67 3.4 CALM 0 4 0 2 1014.2 1014.1 0.0
24/10:30pm 19.7 20.2 11.5 59 4.6 CALM 0 4 0 2 1014.1 1014.0 0.0
24/10:00pm 20.7 21.1 11.3 55 5.2 CALM 0 4 0 2 1014.2 1014.1 0.0
24/09:30pm 22.6 21.5 10.1 45 6.9 W 6 9 3 5 1014.0 1013.9 0.0
24/09:00pm 24.1 22.4 10.0 41 7.8 W 9 9 5 5 1013.6 1013.5 0.0
24/08:30pm 24.1 22.8 11.1 44 7.3 W 9 11 5 6 1012.9 1012.8 0.0
24/08:00pm 24.6 22.9 11.2 43 7.6 W 11 15 6 8 1012.5 1012.3 0.0
24/07:30pm 26.2 23.7 11.2 39 8.6 WNW 15 19 8 10 1012.2 1012.0 0.0
24/07:00pm 27.2 25.0 10.8 36 9.3 WNW 13 19 7 10 1011.8 1011.6 0.0
24/06:30pm 28.0 25.9 12.4 38 9.1 W 15 24 8 13 1011.4 1011.2 0.0
24/06:00pm 28.3 25.6 11.8 36 9.6 W 17 24 9 13 1011.2 1011.0 0.0
24/05:30pm 28.8 25.2 11.8 35 9.9 W 22 33 12 18 1011.0 1010.8 0.0
24/05:00pm 29.6 25.5 11.6 33 10.5 W 24 32 13 17 1010.6 1010.4 0.0
24/04:30pm 30.9 26.4 11.3 30 11.4 W 26 33 14 18 1010.7 1010.5 0.0
24/04:00pm 31.6 27.2 10.3 27 12.3 W 24 35 13 19 1010.6 1010.4 0.0
24/03:30pm 32.3 26.8 9.2 24 13.1 W 28 46 15 25 1010.6 1010.4 0.0
24/03:29pm 32.3 26.8 9.2 24 13.1 W 28 46 15 25 1010.6 1010.4 0.0
24/03:00pm 32.1 27.1 9.6 25 12.9 W 26 39 14 21 1010.6 1010.4 0.0
24/02:30pm 31.6 28.1 10.9 28 12.0 W 20 28 11 15 1011.0 1010.8 0.0
24/02:00pm 32.4 29.5 11.0 27 12.5 NW 17 24 9 13 1011.3 1011.1 0.0
24/01:30pm 31.9 29.4 11.1 28 12.1 NNW 15 24 8 13 1011.6 1011.4 0.0
24/01:00pm 31.2 28.7 11.1 29 11.7 N 15 24 8 13 1012.1 1011.9 0.0
24/12:30pm 30.2 27.5 11.7 32 10.8 N 17 26 9 14 1012.5 1012.3 0.0
24/12:00pm 30.0 28.4 12.9 35 10.2 NNE 13 22 7 12 1012.9 1012.8 0.0
24/11:30am 29.4 26.9 12.3 34 10.1 N 17 28 9 15 1013.4 1013.3 0.0
24/11:00am 28.6 25.6 12.5 37 9.5 N 20 30 11 16 1013.8 1013.7 0.0
24/10:30am 27.6 24.7 12.4 39 8.9 NNE 19 26 10 14 1014.0 1013.9 0.0
24/10:00am 26.6 22.9 11.5 39 8.7 NNE 22 35 12 19 1014.5 1014.4 0.0
24/09:30am 25.8 23.8 12.6 44 7.7 ENE 15 20 8 11 1014.6 1014.5 0.0
24/09:00am 25.1 22.9 12.0 44 7.5 NE 15 26 8 14 1014.5 1014.4 0.0
24/08:30am 24.1 22.3 12.1 47 6.9 E 13 19 7 10 1014.7 1014.6 0.0
24/08:00am 22.0 21.1 12.5 54 5.4 SE 9 15 5 8 1014.7 1014.6 0.0
24/07:30am 20.9 19.9 12.3 58 4.9 ESE 9 13 5 7 1014.8 1014.7 0.0
24/07:00am 19.1 17.9 11.7 62 4.1 ESE 9 11 5 6 1014.6 1014.5 0.0
24/06:30am 17.8 16.3 12.0 69 3.2 S 11 13 6 7 1014.4 1014.3 0.0
24/06:00am 17.8 15.8 11.4 66 3.5 S 13 15 7 8 1014.0 1013.9 0.0
24/05:30am 19.2 18.5 12.0 63 4.0 S 7 9 4 5 1013.8 1013.7 0.0
24/05:00am 19.1 17.6 11.9 63 4.0 S 11 15 6 8 1013.5 1013.4 0.0
24/04:30am 20.3 18.8 12.0 59 4.7 SE 11 13 6 7 1013.6 1013.5 0.0
24/04:00am 21.4 19.6 12.0 55 5.3 ESE 13 19 7 10 1013.7 1013.6 0.0
24/03:30am 21.9 20.0 11.9 53 5.7 ESE 13 22 7 12 1013.9 1013.8 0.0
24/03:00am 21.0 19.7 12.4 58 4.9 SE 11 13 6 7 1014.0 1013.9 0.0
24/02:30am 21.3 19.6 12.4 57 5.1 ESE 13 22 7 12 1014.0 1013.9 0.0
24/02:00am 21.2 20.7 13.9 63 4.3 S 9 13 5 7 1014.4 1014.3 0.0
24/01:30am 19.3 18.8 13.9 71 3.1 SSE 9 13 5 7 1014.8 1014.7 0.0
24/01:00am 20.8 21.1 14.5 67 3.7 S 6 9 3 5 1014.9 1014.8 0.0
24/12:30am 21.4 21.0 14.1 63 4.3 SE 9 13 5 7 1014.8 1014.7 0.0
24/12:00am 22.9 22.5 14.2 58 5.1 SSE 9 11 5 6 1014.8 1014.7 0.0
 
Date/Time
EDT
Temp
°C
App
Temp
°C
Dew
Point
Rel
Hum
%
Delta-T
°C
Wind Press
QNH
hPa
Press
MSL
hPa
Rain
since 9 am
mm
Dir
 
Spd
km/h
Gust
km/h
Spd
kts
Gust
kts
23/11:30pm 23.6 21.2 13.8 54 5.8 S 19 26 10 14 1014.7 1014.6 0.0
23/11:00pm 23.6 23.1 13.8 54 5.8 E 9 15 5 8 1014.6 1014.5 0.0
23/10:30pm 24.0 23.4 14.7 56 5.6 ESE 11 17 6 9 1014.3 1014.2 0.0
23/10:00pm 23.3 24.3 15.4 61 4.8 ENE 4 9 2 5 1013.8 1013.7 0.0
23/09:30pm 24.5 25.8 15.1 55 5.7 ENE 2 6 1 3 1013.5 1013.4 0.0
23/09:00pm 24.1 24.8 15.6 59 5.2 ENE 6 7 3 4 1013.2 1013.1 0.0
23/08:30pm 24.5 25.1 15.4 57 5.5 ENE 6 9 3 5 1012.8 1012.7 0.0
23/08:00pm 26.3 26.8 15.0 49 6.9 ESE 6 7 3 4 1012.4 1012.2 0.0

Other Formats:

Comma delimited format used in spreadsheet applications
http://www.bom.gov.au/fwo/IDN60801/IDN60801.95896.axf

JavaScript Object Notation format (JSON) in row-major order
http://www.bom.gov.au/fwo/IDN60801/IDN60801.95896.json